This is the latest recevied weather packets stored in our database for station/object SP5IZJ-2. If no packets are shown the sender has not sent any weather packets the latest 1 day(s).
| Time | Temp. | Humidity | Pressure | Rain* | Wind** | Luminosity | Snow |
|---|---|---|---|---|---|---|---|
| 1777956625 | 15° C | 72% | 1002.7 hPa | 0 mm | 0 m/s | - | - |
| 1777956185 | 15.56° C | 71% | 1002.7 hPa | 0 mm | 0.45 m/s, 225° | - | - |
| 1777955794 | 15.56° C | 71% | 1002.7 hPa | 0 mm | 0.45 m/s, 225° | - | - |
| 1777955345 | 15.56° C | 75% | 1002.9 hPa | 0 mm | 0 m/s | - | - |
| 1777954937 | 15° C | 78% | 1002.9 hPa | 0 mm | 0 m/s | - | - |
| 1777954086 | 12.78° C | 81% | 1002.9 hPa | 0 mm | 0.45 m/s, 225° | - | - |
| 1777953668 | 12.22° C | 81% | 1002.9 hPa | 0 mm | 0 m/s | - | - |
| 1777953246 | 11.67° C | 82% | 1003 hPa | 0 mm | 0.45 m/s, 225° | - | - |
| 1777952411 | 10.56° C | 82% | 1003.1 hPa | 0 mm | 0 m/s | - | - |
| 1777950727 | 9.44° C | 81% | 1003 hPa | 0 mm | 0 m/s | - | - |
| 1777950319 | 100° C | 100% | 0 hPa | 0 mm | 0 m/s | - | - |
| 1777948628 | 9.44° C | 79% | 1003.2 hPa | 0 mm | 0 m/s | - | - |
| 1777947789 | 9.44° C | 78% | 1003.1 hPa | 0 mm | 0 m/s | - | - |
| 1777947369 | 9.44° C | 78% | 1003.1 hPa | 0 mm | 0 m/s | - | - |
| 1777946529 | 9.44° C | 75% | 1003.4 hPa | 0 mm | 0 m/s | - | - |
| 1777946109 | 9.44° C | 76% | 1003.4 hPa | 0 mm | 0 m/s | - | - |
| 1777945690 | 9.44° C | 75% | 1003.4 hPa | 0 mm | 0 m/s | - | - |
| 1777945274 | 9.44° C | 75% | 1003.4 hPa | 0 mm | 0 m/s | - | - |
| 1777944850 | 10° C | 74% | 1003.4 hPa | 0 mm | 0 m/s | - | - |
| 1777943590 | 10° C | 74% | 1003.3 hPa | 0 mm | 0 m/s | - | - |
| 1777943171 | 100° C | 100% | 0 hPa | 0 mm | 0 m/s | - | - |
| 1777942751 | 10.56° C | 73% | 1003.2 hPa | 0 mm | 0 m/s | - | - |
| 1777941911 | 11.11° C | 72% | 1003 hPa | 0 mm | 0 m/s | - | - |
| 1777941491 | 11.11° C | 71% | 1003.1 hPa | 0 mm | 0 m/s | - | - |
| 1777941071 | 11.11° C | 72% | 1003.1 hPa | 0 mm | 0 m/s | - | - |
* Rain latest hour (hover to see other rain measurements)
** Current wind speed in m/s (hover to see current wind gust speed)